Eutawville, SC (29048)

3:53 AM EDT on September 22, 2014 (GMT -0400)
Dingle Pond | Change Station
CLOSE
Current Station
Personal Weather Station
Location: Summerton, SC
Elevation: 95 ft
Nearby Weather Stations

Elev 95 ft 33.51 °N, 80.41 °W | Updated 2 seconds ago

Clear
Clear
72.9 °F
Feels Like 74 °F
N
1.6
Wind Variable Wind from NW
Gusts 6.0 mph

Today
High -- | Low -- °F
--% Chance of Precip.
Yesterday
High -- | Low -- °F
Precip. -- in
7:09 AM 7:18 PM
Waning Crescent, 3% visible
Pressure 29.93 in
Visibility 7.0 miles
Clouds Scattered Clouds 11000 ft
Heat Index 74 °F
Dew Point 65 °F
Humidity 76%
Rainfall 0.00 in
Snow Depth Not available.
UV 0 out of 12
Pollen 7.80 out of 12
Ozone Good
Flu Activity Not available.
METAR KMNI 220735Z AUTO 22005KT 7SM SCT110 23/19 A2993 RMK AO2

More Conditions Fewer Conditions

Pressure 29.93 in
Visibility 7.0 miles
Clouds Scattered Clouds 11000 ft
Heat Index 74 °F
Dew Point 65 °F
Humidity 76%
Rainfall 0.00 in
Snow Depth Not available.
UV 0 out of 12
Pollen 7.80 out of 12
Ozone Good
Flu Activity Not available.
METAR KMNI 220735Z AUTO 22005KT 7SM SCT110 23/19 A2993 RMK AO2

More Conditions Fewer Conditions

10-Day Weather Forecast

Almanac

Astronomy

Sep. 22, 2014 Rise Set
Actual Time 7:09 AM EDT 7:18 PM EDT
Civil Twilight 6:44 AM EDT 7:42 PM EDT
Nautical Twilight 6:15 AM EDT 8:11 PM EDT
Astronomical Twilight 5:46 AM EDT 8:40 PM EDT
Moon 5:39 AM EDT 6:22 PM EDT
Length of Visible Light 12h 58m
Length of Day
12h 08m
Tomorrow will be 2m 4s shorter.
Waning Crescent, 3% of the Moon is Illuminated
Today
Waning Crescent
Sep 24
New
Oct 1
First Quarter
Oct 8
Full
Oct 15
Last Quarter

Today's Extremes

State Highs State Lows

Community

WunderPhotos

Upload Photos

1,755,392 photos uploaded!

Nearby

Air Quality

  Air Quality AQ Index Pollutant
Yesterday Good
OZONE
Yesterday Good
PM2.5
Current Good
OZONE
Monday Good
OZONE

Snow Depth

Station Depth Elevation
No new snow has been reported.

Earthquake Activity

City Distance Mag. Time & Date
New Ellenton, South Carolina 80 miles 2.6 4:38 PM EDT
2014-09-19
Minimum magnitude displayed is 2.5.

Coastal Water Temperatures

Place Temperature
No Stations Reporting

Nearby Weather Stations